sensor_id;sensor_type;location;lat;lon;timestamp;P1;durP1;ratioP1;P2;durP2;ratioP2
2750;SDS011;1383;48.362;10.908;2022-12-11T00:00:25;26.30;;;16.08;;
2750;SDS011;1383;48.362;10.908;2022-12-11T00:02:53;20.88;;;15.27;;
2750;SDS011;1383;48.362;10.908;2022-12-11T00:05:20;28.17;;;16.17;;
2750;SDS011;1383;48.362;10.908;2022-12-11T00:07:46;27.38;;;17.40;;
2750;SDS011;1383;48.362;10.908;2022-12-11T00:10:13;26.95;;;15.73;;
2750;SDS011;1383;48.362;10.908;2022-12-11T00:12:40;25.70;;;17.17;;
2750;SDS011;1383;48.362;10.908;2022-12-11T00:15:08;29.70;;;17.75;;
2750;SDS011;1383;48.362;10.908;2022-12-11T00:17:35;25.00;;;16.67;;
2750;SDS011;1383;48.362;10.908;2022-12-11T00:20:02;26.85;;;16.17;;
2750;SDS011;1383;48.362;10.908;2022-12-11T00:22:30;21.40;;;15.07;;
2750;SDS011;1383;48.362;10.908;2022-12-11T00:24:57;20.95;;;14.32;;
2750;SDS011;1383;48.362;10.908;2022-12-11T00:27:24;24.35;;;15.48;;
2750;SDS011;1383;48.362;10.908;2022-12-11T00:29:51;26.42;;;17.05;;
2750;SDS011;1383;48.362;10.908;2022-12-11T00:32:17;24.92;;;15.20;;
2750;SDS011;1383;48.362;10.908;2022-12-11T00:34:44;26.40;;;15.93;;
2750;SDS011;1383;48.362;10.908;2022-12-11T00:37:11;24.98;;;15.15;;
2750;SDS011;1383;48.362;10.908;2022-12-11T00:39:38;21.30;;;13.77;;
2750;SDS011;1383;48.362;10.908;2022-12-11T00:42:05;18.10;;;14.50;;
2750;SDS011;1383;48.362;10.908;2022-12-11T00:44:33;24.05;;;15.90;;
2750;SDS011;1383;48.362;10.908;2022-12-11T00:47:00;29.17;;;17.60;;
2750;SDS011;1383;48.362;10.908;2022-12-11T00:49:28;23.75;;;14.65;;
2750;SDS011;1383;48.362;10.908;2022-12-11T00:51:54;24.67;;;16.60;;
2750;SDS011;1383;48.362;10.908;2022-12-11T00:54:21;29.48;;;17.65;;
2750;SDS011;1383;48.362;10.908;2022-12-11T00:56:48;23.05;;;15.55;;
2750;SDS011;1383;48.362;10.908;2022-12-11T00:59:15;26.80;;;16.55;;
2750;SDS011;1383;48.362;10.908;2022-12-11T01:01:42;26.30;;;16.42;;
2750;SDS011;1383;48.362;10.908;2022-12-11T01:04:09;22.33;;;15.00;;
2750;SDS011;1383;48.362;10.908;2022-12-11T01:06:36;23.95;;;14.18;;
2750;SDS011;1383;48.362;10.908;2022-12-11T01:09:04;23.52;;;16.27;;
2750;SDS011;1383;48.362;10.908;2022-12-11T01:11:50;22.20;;;15.18;;
2750;SDS011;1383;48.362;10.908;2022-12-11T01:14:17;22.77;;;14.07;;
2750;SDS011;1383;48.362;10.908;2022-12-11T01:16:44;23.02;;;15.55;;
2750;SDS011;1383;48.362;10.908;2022-12-11T01:19:11;21.88;;;13.73;;
2750;SDS011;1383;48.362;10.908;2022-12-11T01:21:38;23.08;;;14.63;;
2750;SDS011;1383;48.362;10.908;2022-12-11T01:24:05;21.00;;;13.93;;
2750;SDS011;1383;48.362;10.908;2022-12-11T01:26:32;25.15;;;15.18;;
2750;SDS011;1383;48.362;10.908;2022-12-11T01:28:59;23.23;;;14.32;;
2750;SDS011;1383;48.362;10.908;2022-12-11T01:31:26;21.45;;;14.00;;
2750;SDS011;1383;48.362;10.908;2022-12-11T01:33:53;22.98;;;15.77;;
2750;SDS011;1383;48.362;10.908;2022-12-11T01:36:21;21.45;;;13.85;;
2750;SDS011;1383;48.362;10.908;2022-12-11T01:38:48;19.80;;;16.70;;
2750;SDS011;1383;48.362;10.908;2022-12-11T01:41:16;23.08;;;15.02;;
2750;SDS011;1383;48.362;10.908;2022-12-11T01:44:00;21.45;;;16.17;;
2750;SDS011;1383;48.362;10.908;2022-12-11T01:46:31;26.98;;;16.17;;
2750;SDS011;1383;48.362;10.908;2022-12-11T01:49:00;24.38;;;16.00;;
2750;SDS011;1383;48.362;10.908;2022-12-11T01:51:29;20.90;;;15.40;;
2750;SDS011;1383;48.362;10.908;2022-12-11T01:54:00;21.52;;;15.13;;
2750;SDS011;1383;48.362;10.908;2022-12-11T01:56:29;25.23;;;16.02;;
2750;SDS011;1383;48.362;10.908;2022-12-11T01:59:01;20.77;;;14.60;;
2750;SDS011;1383;48.362;10.908;2022-12-11T02:01:39;25.17;;;15.77;;
2750;SDS011;1383;48.362;10.908;2022-12-11T02:04:11;23.15;;;14.80;;
2750;SDS011;1383;48.362;10.908;2022-12-11T02:06:46;25.85;;;16.73;;
2750;SDS011;1383;48.362;10.908;2022-12-11T02:09:15;27.25;;;16.50;;
2750;SDS011;1383;48.362;10.908;2022-12-11T02:16:54;21.77;;;15.13;;
2750;SDS011;1383;48.362;10.908;2022-12-11T02:22:10;24.58;;;17.65;;
2750;SDS011;1383;48.362;10.908;2022-12-11T02:25:30;22.30;;;14.80;;
2750;SDS011;1383;48.362;10.908;2022-12-11T02:30:36;22.35;;;13.95;;
2750;SDS011;1383;48.362;10.908;2022-12-11T02:33:06;21.98;;;14.25;;
2750;SDS011;1383;48.362;10.908;2022-12-11T02:35:40;25.65;;;15.90;;
2750;SDS011;1383;48.362;10.908;2022-12-11T02:38:14;26.95;;;15.75;;
2750;SDS011;1383;48.362;10.908;2022-12-11T02:40:44;22.60;;;15.07;;
2750;SDS011;1383;48.362;10.908;2022-12-11T02:43:14;23.15;;;15.75;;
2750;SDS011;1383;48.362;10.908;2022-12-11T02:45:42;21.10;;;15.35;;
2750;SDS011;1383;48.362;10.908;2022-12-11T02:48:11;22.85;;;14.95;;
2750;SDS011;1383;48.362;10.908;2022-12-11T02:50:44;25.00;;;16.80;;
2750;SDS011;1383;48.362;10.908;2022-12-11T02:53:12;29.30;;;18.55;;
2750;SDS011;1383;48.362;10.908;2022-12-11T02:55:43;20.13;;;14.73;;
2750;SDS011;1383;48.362;10.908;2022-12-11T02:58:20;24.33;;;15.45;;
2750;SDS011;1383;48.362;10.908;2022-12-11T03:00:51;24.75;;;15.77;;
2750;SDS011;1383;48.362;10.908;2022-12-11T03:03:17;25.35;;;17.42;;
2750;SDS011;1383;48.362;10.908;2022-12-11T03:05:44;24.10;;;16.08;;
2750;SDS011;1383;48.362;10.908;2022-12-11T03:08:11;25.30;;;14.98;;
2750;SDS011;1383;48.362;10.908;2022-12-11T03:10:43;22.45;;;16.02;;
2750;SDS011;1383;48.362;10.908;2022-12-11T03:13:11;24.48;;;16.15;;
2750;SDS011;1383;48.362;10.908;2022-12-11T03:18:38;25.42;;;15.73;;
2750;SDS011;1383;48.362;10.908;2022-12-11T03:21:21;24.55;;;15.80;;
2750;SDS011;1383;48.362;10.908;2022-12-11T03:24:08;20.77;;;13.88;;
2750;SDS011;1383;48.362;10.908;2022-12-11T03:26:44;22.15;;;16.25;;
2750;SDS011;1383;48.362;10.908;2022-12-11T03:29:22;20.60;;;13.52;;
2750;SDS011;1383;48.362;10.908;2022-12-11T03:31:59;21.85;;;15.07;;
2750;SDS011;1383;48.362;10.908;2022-12-11T03:34:40;24.95;;;13.23;;
2750;SDS011;1383;48.362;10.908;2022-12-11T03:37:13;18.33;;;13.32;;
2750;SDS011;1383;48.362;10.908;2022-12-11T03:39:51;25.05;;;15.05;;
2750;SDS011;1383;48.362;10.908;2022-12-11T03:42:21;25.58;;;14.20;;
2750;SDS011;1383;48.362;10.908;2022-12-11T03:44:50;21.88;;;14.18;;
2750;SDS011;1383;48.362;10.908;2022-12-11T03:47:19;26.67;;;15.68;;
2750;SDS011;1383;48.362;10.908;2022-12-11T03:49:49;22.73;;;14.40;;
2750;SDS011;1383;48.362;10.908;2022-12-11T03:52:17;26.42;;;16.17;;
2750;SDS011;1383;48.362;10.908;2022-12-11T03:54:45;23.15;;;14.93;;
2750;SDS011;1383;48.362;10.908;2022-12-11T03:57:15;23.13;;;13.65;;
2750;SDS011;1383;48.362;10.908;2022-12-11T03:59:44;18.88;;;12.90;;
2750;SDS011;1383;48.362;10.908;2022-12-11T04:02:11;20.95;;;14.40;;
2750;SDS011;1383;48.362;10.908;2022-12-11T04:04:38;18.77;;;12.63;;
2750;SDS011;1383;48.362;10.908;2022-12-11T04:07:07;21.13;;;13.77;;
2750;SDS011;1383;48.362;10.908;2022-12-11T04:09:34;22.77;;;14.82;;
2750;SDS011;1383;48.362;10.908;2022-12-11T04:12:01;20.30;;;14.45;;
2750;SDS011;1383;48.362;10.908;2022-12-11T04:14:28;21.38;;;13.88;;
2750;SDS011;1383;48.362;10.908;2022-12-11T04:17:13;21.70;;;14.95;;
2750;SDS011;1383;48.362;10.908;2022-12-11T04:20:04;21.17;;;13.35;;
2750;SDS011;1383;48.362;10.908;2022-12-11T04:22:50;19.98;;;13.65;;
2750;SDS011;1383;48.362;10.908;2022-12-11T04:25:35;20.65;;;13.93;;
2750;SDS011;1383;48.362;10.908;2022-12-11T04:28:02;21.00;;;12.38;;
2750;SDS011;1383;48.362;10.908;2022-12-11T04:30:29;18.75;;;11.77;;
2750;SDS011;1383;48.362;10.908;2022-12-11T04:32:59;21.17;;;13.93;;
2750;SDS011;1383;48.362;10.908;2022-12-11T04:35:27;17.88;;;12.00;;
2750;SDS011;1383;48.362;10.908;2022-12-11T04:37:54;19.00;;;12.02;;
2750;SDS011;1383;48.362;10.908;2022-12-11T04:40:21;19.58;;;13.60;;
2750;SDS011;1383;48.362;10.908;2022-12-11T04:42:48;18.05;;;11.40;;
2750;SDS011;1383;48.362;10.908;2022-12-11T04:45:15;16.80;;;11.60;;
2750;SDS011;1383;48.362;10.908;2022-12-11T04:47:42;19.92;;;11.48;;
2750;SDS011;1383;48.362;10.908;2022-12-11T04:50:09;21.10;;;14.63;;
2750;SDS011;1383;48.362;10.908;2022-12-11T04:52:37;19.08;;;13.90;;
2750;SDS011;1383;48.362;10.908;2022-12-11T04:55:05;20.17;;;13.30;;
2750;SDS011;1383;48.362;10.908;2022-12-11T04:57:33;19.42;;;12.63;;
2750;SDS011;1383;48.362;10.908;2022-12-11T05:00:00;19.08;;;13.52;;
2750;SDS011;1383;48.362;10.908;2022-12-11T05:02:29;24.15;;;13.05;;
2750;SDS011;1383;48.362;10.908;2022-12-11T05:05:01;24.38;;;15.20;;
2750;SDS011;1383;48.362;10.908;2022-12-11T05:07:28;18.95;;;14.85;;
2750;SDS011;1383;48.362;10.908;2022-12-11T05:09:55;24.38;;;15.20;;
2750;SDS011;1383;48.362;10.908;2022-12-11T05:12:22;23.77;;;15.18;;
2750;SDS011;1383;48.362;10.908;2022-12-11T05:14:52;23.77;;;15.68;;
2750;SDS011;1383;48.362;10.908;2022-12-11T05:17:20;25.00;;;14.20;;
2750;SDS011;1383;48.362;10.908;2022-12-11T05:19:47;25.15;;;15.70;;
2750;SDS011;1383;48.362;10.908;2022-12-11T05:22:16;26.08;;;15.90;;
2750;SDS011;1383;48.362;10.908;2022-12-11T05:24:44;20.88;;;14.23;;
2750;SDS011;1383;48.362;10.908;2022-12-11T05:27:11;17.15;;;11.18;;
2750;SDS011;1383;48.362;10.908;2022-12-11T05:29:38;20.58;;;13.60;;
2750;SDS011;1383;48.362;10.908;2022-12-11T05:32:04;24.70;;;15.70;;
2750;SDS011;1383;48.362;10.908;2022-12-11T05:34:31;22.33;;;14.48;;
2750;SDS011;1383;48.362;10.908;2022-12-11T05:36:58;25.83;;;14.90;;
2750;SDS011;1383;48.362;10.908;2022-12-11T05:39:25;21.40;;;14.98;;
2750;SDS011;1383;48.362;10.908;2022-12-11T05:41:52;21.52;;;13.85;;
2750;SDS011;1383;48.362;10.908;2022-12-11T05:44:18;23.48;;;13.93;;
2750;SDS011;1383;48.362;10.908;2022-12-11T05:46:45;20.17;;;13.48;;
2750;SDS011;1383;48.362;10.908;2022-12-11T05:49:12;19.50;;;12.93;;
2750;SDS011;1383;48.362;10.908;2022-12-11T05:51:42;18.65;;;13.05;;
2750;SDS011;1383;48.362;10.908;2022-12-11T05:54:09;21.98;;;15.30;;
2750;SDS011;1383;48.362;10.908;2022-12-11T05:56:36;21.17;;;14.18;;
2750;SDS011;1383;48.362;10.908;2022-12-11T05:59:04;19.73;;;14.27;;
2750;SDS011;1383;48.362;10.908;2022-12-11T06:01:36;22.33;;;15.45;;
2750;SDS011;1383;48.362;10.908;2022-12-11T06:04:04;23.88;;;14.95;;
2750;SDS011;1383;48.362;10.908;2022-12-11T06:06:32;19.20;;;14.93;;
2750;SDS011;1383;48.362;10.908;2022-12-11T06:08:59;22.15;;;15.38;;
2750;SDS011;1383;48.362;10.908;2022-12-11T06:11:28;20.73;;;14.40;;
2750;SDS011;1383;48.362;10.908;2022-12-11T06:13:57;20.73;;;14.25;;
2750;SDS011;1383;48.362;10.908;2022-12-11T06:16:24;21.60;;;15.20;;
2750;SDS011;1383;48.362;10.908;2022-12-11T06:18:51;20.90;;;14.02;;
2750;SDS011;1383;48.362;10.908;2022-12-11T06:21:24;20.15;;;13.90;;
2750;SDS011;1383;48.362;10.908;2022-12-11T06:23:56;21.67;;;15.10;;
2750;SDS011;1383;48.362;10.908;2022-12-11T06:26:24;23.90;;;15.48;;
2750;SDS011;1383;48.362;10.908;2022-12-11T06:28:52;24.17;;;15.10;;
2750;SDS011;1383;48.362;10.908;2022-12-11T06:31:19;24.63;;;15.30;;
2750;SDS011;1383;48.362;10.908;2022-12-11T06:33:46;24.65;;;15.30;;
2750;SDS011;1383;48.362;10.908;2022-12-11T06:36:14;22.20;;;14.95;;
2750;SDS011;1383;48.362;10.908;2022-12-11T06:38:43;22.35;;;15.63;;
2750;SDS011;1383;48.362;10.908;2022-12-11T06:41:11;23.38;;;14.35;;
2750;SDS011;1383;48.362;10.908;2022-12-11T06:43:38;22.00;;;15.35;;
2750;SDS011;1383;48.362;10.908;2022-12-11T06:46:07;23.98;;;16.30;;
2750;SDS011;1383;48.362;10.908;2022-12-11T06:48:38;23.02;;;14.60;;
2750;SDS011;1383;48.362;10.908;2022-12-11T06:51:08;27.63;;;17.20;;
2750;SDS011;1383;48.362;10.908;2022-12-11T06:53:52;20.70;;;14.50;;
2750;SDS011;1383;48.362;10.908;2022-12-11T06:56:21;25.15;;;15.77;;
2750;SDS011;1383;48.362;10.908;2022-12-11T06:58:49;26.88;;;16.80;;
2750;SDS011;1383;48.362;10.908;2022-12-11T07:01:18;25.35;;;16.08;;
2750;SDS011;1383;48.362;10.908;2022-12-11T07:03:45;27.77;;;16.10;;
2750;SDS011;1383;48.362;10.908;2022-12-11T07:06:13;29.42;;;17.70;;
2750;SDS011;1383;48.362;10.908;2022-12-11T07:08:40;26.23;;;15.85;;
2750;SDS011;1383;48.362;10.908;2022-12-11T07:11:09;25.60;;;18.23;;
2750;SDS011;1383;48.362;10.908;2022-12-11T07:13:37;20.25;;;14.32;;
2750;SDS011;1383;48.362;10.908;2022-12-11T07:16:05;32.05;;;17.67;;
2750;SDS011;1383;48.362;10.908;2022-12-11T07:18:40;27.70;;;19.92;;
2750;SDS011;1383;48.362;10.908;2022-12-11T07:21:09;25.67;;;16.63;;
2750;SDS011;1383;48.362;10.908;2022-12-11T07:23:38;27.48;;;18.15;;
2750;SDS011;1383;48.362;10.908;2022-12-11T07:26:06;26.13;;;16.48;;
2750;SDS011;1383;48.362;10.908;2022-12-11T07:28:34;25.02;;;17.27;;
2750;SDS011;1383;48.362;10.908;2022-12-11T07:31:09;21.95;;;15.43;;
2750;SDS011;1383;48.362;10.908;2022-12-11T07:33:38;22.92;;;15.95;;
2750;SDS011;1383;48.362;10.908;2022-12-11T07:36:06;25.33;;;16.77;;
2750;SDS011;1383;48.362;10.908;2022-12-11T07:38:34;26.73;;;17.05;;
2750;SDS011;1383;48.362;10.908;2022-12-11T07:41:02;25.40;;;16.60;;
2750;SDS011;1383;48.362;10.908;2022-12-11T07:43:30;22.75;;;16.17;;
2750;SDS011;1383;48.362;10.908;2022-12-11T07:46:03;25.35;;;16.45;;
2750;SDS011;1383;48.362;10.908;2022-12-11T07:48:33;21.67;;;15.98;;
2750;SDS011;1383;48.362;10.908;2022-12-11T07:51:07;19.67;;;13.88;;
2750;SDS011;1383;48.362;10.908;2022-12-11T07:53:35;27.15;;;15.95;;
2750;SDS011;1383;48.362;10.908;2022-12-11T07:56:03;23.77;;;15.02;;
2750;SDS011;1383;48.362;10.908;2022-12-11T07:58:30;24.95;;;15.20;;
2750;SDS011;1383;48.362;10.908;2022-12-11T08:00:56;23.92;;;15.98;;
2750;SDS011;1383;48.362;10.908;2022-12-11T08:03:23;24.60;;;14.43;;
2750;SDS011;1383;48.362;10.908;2022-12-11T08:05:50;23.50;;;16.88;;
2750;SDS011;1383;48.362;10.908;2022-12-11T08:08:18;26.98;;;18.77;;
2750;SDS011;1383;48.362;10.908;2022-12-11T08:10:45;24.02;;;15.45;;
2750;SDS011;1383;48.362;10.908;2022-12-11T08:13:11;24.23;;;15.55;;
2750;SDS011;1383;48.362;10.908;2022-12-11T08:15:38;23.45;;;14.93;;
2750;SDS011;1383;48.362;10.908;2022-12-11T08:18:05;24.38;;;16.02;;
2750;SDS011;1383;48.362;10.908;2022-12-11T08:20:32;21.83;;;14.55;;
2750;SDS011;1383;48.362;10.908;2022-12-11T08:22:59;27.88;;;17.70;;
2750;SDS011;1383;48.362;10.908;2022-12-11T08:25:26;25.02;;;16.05;;
2750;SDS011;1383;48.362;10.908;2022-12-11T08:27:53;21.27;;;14.88;;
2750;SDS011;1383;48.362;10.908;2022-12-11T08:30:19;24.92;;;16.13;;
2750;SDS011;1383;48.362;10.908;2022-12-11T08:32:46;22.38;;;15.48;;
2750;SDS011;1383;48.362;10.908;2022-12-11T08:35:13;21.17;;;14.93;;
2750;SDS011;1383;48.362;10.908;2022-12-11T08:37:40;20.90;;;14.60;;
2750;SDS011;1383;48.362;10.908;2022-12-11T08:40:09;19.63;;;15.07;;
2750;SDS011;1383;48.362;10.908;2022-12-11T08:42:37;20.38;;;14.70;;
2750;SDS011;1383;48.362;10.908;2022-12-11T08:45:04;19.73;;;13.82;;
2750;SDS011;1383;48.362;10.908;2022-12-11T08:47:31;21.00;;;14.02;;
2750;SDS011;1383;48.362;10.908;2022-12-11T08:49:58;19.83;;;13.32;;
2750;SDS011;1383;48.362;10.908;2022-12-11T08:52:25;20.58;;;13.73;;
2750;SDS011;1383;48.362;10.908;2022-12-11T08:54:52;18.52;;;13.07;;
2750;SDS011;1383;48.362;10.908;2022-12-11T08:57:18;22.60;;;14.13;;
2750;SDS011;1383;48.362;10.908;2022-12-11T08:59:45;20.38;;;14.05;;
2750;SDS011;1383;48.362;10.908;2022-12-11T09:02:12;23.00;;;13.52;;
2750;SDS011;1383;48.362;10.908;2022-12-11T09:04:39;19.50;;;14.68;;
2750;SDS011;1383;48.362;10.908;2022-12-11T09:07:06;21.75;;;13.95;;
2750;SDS011;1383;48.362;10.908;2022-12-11T09:09:33;20.98;;;12.98;;
2750;SDS011;1383;48.362;10.908;2022-12-11T09:12:00;21.27;;;13.68;;
2750;SDS011;1383;48.362;10.908;2022-12-11T09:14:29;17.00;;;13.05;;
2750;SDS011;1383;48.362;10.908;2022-12-11T09:16:56;19.00;;;13.00;;
2750;SDS011;1383;48.362;10.908;2022-12-11T09:19:23;21.08;;;14.55;;
2750;SDS011;1383;48.362;10.908;2022-12-11T09:21:57;18.88;;;13.05;;
2750;SDS011;1383;48.362;10.908;2022-12-11T09:24:24;15.30;;;12.43;;
2750;SDS011;1383;48.362;10.908;2022-12-11T09:26:50;16.63;;;11.40;;
2750;SDS011;1383;48.362;10.908;2022-12-11T09:29:17;18.95;;;12.88;;
2750;SDS011;1383;48.362;10.908;2022-12-11T09:31:44;17.63;;;12.65;;
2750;SDS011;1383;48.362;10.908;2022-12-11T09:34:12;19.63;;;14.90;;
2750;SDS011;1383;48.362;10.908;2022-12-11T09:36:40;22.48;;;14.57;;
2750;SDS011;1383;48.362;10.908;2022-12-11T09:39:07;17.95;;;14.18;;
2750;SDS011;1383;48.362;10.908;2022-12-11T09:41:42;18.20;;;13.15;;
2750;SDS011;1383;48.362;10.908;2022-12-11T10:18:00;13.82;;;12.25;;
2750;SDS011;1383;48.362;10.908;2022-12-11T10:20:31;14.50;;;10.60;;
2750;SDS011;1383;48.362;10.908;2022-12-11T10:23:08;15.18;;;10.65;;
2750;SDS011;1383;48.362;10.908;2022-12-11T10:25:53;16.92;;;11.50;;
2750;SDS011;1383;48.362;10.908;2022-12-11T10:28:27;13.77;;;11.20;;
2750;SDS011;1383;48.362;10.908;2022-12-11T10:31:02;15.68;;;10.50;;
2750;SDS011;1383;48.362;10.908;2022-12-11T10:33:42;14.23;;;10.63;;
2750;SDS011;1383;48.362;10.908;2022-12-11T10:36:25;15.00;;;10.25;;
2750;SDS011;1383;48.362;10.908;2022-12-11T10:38:54;16.25;;;11.13;;
2750;SDS011;1383;48.362;10.908;2022-12-11T10:41:23;12.50;;;8.80;;
2750;SDS011;1383;48.362;10.908;2022-12-11T10:44:14;14.73;;;10.55;;
2750;SDS011;1383;48.362;10.908;2022-12-11T10:46:44;14.52;;;11.35;;
2750;SDS011;1383;48.362;10.908;2022-12-11T10:49:23;12.85;;;9.75;;
2750;SDS011;1383;48.362;10.908;2022-12-11T10:51:53;10.52;;;8.43;;
2750;SDS011;1383;48.362;10.908;2022-12-11T10:54:28;10.20;;;7.53;;
2750;SDS011;1383;48.362;10.908;2022-12-11T10:57:03;14.65;;;9.40;;
2750;SDS011;1383;48.362;10.908;2022-12-11T10:59:33;12.07;;;9.20;;
2750;SDS011;1383;48.362;10.908;2022-12-11T11:04:50;13.38;;;9.80;;
2750;SDS011;1383;48.362;10.908;2022-12-11T11:07:22;9.77;;;7.90;;
2750;SDS011;1383;48.362;10.908;2022-12-11T11:10:02;8.57;;;6.32;;
2750;SDS011;1383;48.362;10.908;2022-12-11T11:12:36;14.00;;;8.20;;
2750;SDS011;1383;48.362;10.908;2022-12-11T11:15:06;11.18;;;7.05;;
2750;SDS011;1383;48.362;10.908;2022-12-11T11:17:50;12.35;;;8.70;;
2750;SDS011;1383;48.362;10.908;2022-12-11T11:20:23;9.60;;;7.32;;
2750;SDS011;1383;48.362;10.908;2022-12-11T11:22:59;10.57;;;7.82;;
2750;SDS011;1383;48.362;10.908;2022-12-11T11:25:29;8.93;;;6.75;;
2750;SDS011;1383;48.362;10.908;2022-12-11T11:28:05;9.35;;;6.95;;
2750;SDS011;1383;48.362;10.908;2022-12-11T11:30:40;11.85;;;8.18;;
2750;SDS011;1383;48.362;10.908;2022-12-11T11:33:19;10.98;;;8.13;;
2750;SDS011;1383;48.362;10.908;2022-12-11T11:35:55;15.18;;;7.78;;
2750;SDS011;1383;48.362;10.908;2022-12-11T11:38:24;10.35;;;7.47;;
2750;SDS011;1383;48.362;10.908;2022-12-11T11:41:19;8.88;;;7.20;;
2750;SDS011;1383;48.362;10.908;2022-12-11T11:43:51;9.25;;;7.90;;
2750;SDS011;1383;48.362;10.908;2022-12-11T11:46:36;10.40;;;7.53;;
2750;SDS011;1383;48.362;10.908;2022-12-11T11:52:10;12.20;;;8.82;;
2750;SDS011;1383;48.362;10.908;2022-12-11T11:54:47;10.77;;;8.55;;
2750;SDS011;1383;48.362;10.908;2022-12-11T11:57:28;11.77;;;9.32;;
2750;SDS011;1383;48.362;10.908;2022-12-11T12:00:04;13.50;;;10.02;;
2750;SDS011;1383;48.362;10.908;2022-12-11T12:02:35;12.35;;;10.35;;
2750;SDS011;1383;48.362;10.908;2022-12-11T12:05:03;11.60;;;8.43;;
2750;SDS011;1383;48.362;10.908;2022-12-11T12:07:38;15.45;;;9.73;;
2750;SDS011;1383;48.362;10.908;2022-12-11T12:13:03;11.85;;;9.27;;
2750;SDS011;1383;48.362;10.908;2022-12-11T12:15:59;10.90;;;8.88;;
2750;SDS011;1383;48.362;10.908;2022-12-11T12:18:34;11.43;;;7.82;;
2750;SDS011;1383;48.362;10.908;2022-12-11T12:21:34;14.48;;;9.35;;
2750;SDS011;1383;48.362;10.908;2022-12-11T12:26:44;16.52;;;11.63;;
2750;SDS011;1383;48.362;10.908;2022-12-11T12:30:00;11.45;;;9.00;;
2750;SDS011;1383;48.362;10.908;2022-12-11T12:32:31;12.02;;;10.27;;
2750;SDS011;1383;48.362;10.908;2022-12-11T12:35:08;15.02;;;9.15;;
2750;SDS011;1383;48.362;10.908;2022-12-11T12:49:00;14.10;;;9.82;;
2750;SDS011;1383;48.362;10.908;2022-12-11T12:51:28;15.75;;;10.30;;
2750;SDS011;1383;48.362;10.908;2022-12-11T12:53:57;11.88;;;9.90;;
2750;SDS011;1383;48.362;10.908;2022-12-11T12:56:26;12.88;;;10.07;;
2750;SDS011;1383;48.362;10.908;2022-12-11T12:58:56;11.85;;;8.65;;
2750;SDS011;1383;48.362;10.908;2022-12-11T13:01:24;12.73;;;9.57;;
2750;SDS011;1383;48.362;10.908;2022-12-11T13:03:59;11.13;;;8.80;;
2750;SDS011;1383;48.362;10.908;2022-12-11T13:06:41;12.68;;;8.93;;
2750;SDS011;1383;48.362;10.908;2022-12-11T13:09:11;11.02;;;8.38;;
2750;SDS011;1383;48.362;10.908;2022-12-11T13:11:43;12.70;;;9.20;;
2750;SDS011;1383;48.362;10.908;2022-12-11T13:16:41;12.50;;;9.55;;
2750;SDS011;1383;48.362;10.908;2022-12-11T13:19:26;11.85;;;8.57;;
2750;SDS011;1383;48.362;10.908;2022-12-11T13:27:51;13.55;;;9.63;;
2750;SDS011;1383;48.362;10.908;2022-12-11T13:32:41;11.65;;;8.63;;
2750;SDS011;1383;48.362;10.908;2022-12-11T13:35:15;12.65;;;8.90;;
2750;SDS011;1383;48.362;10.908;2022-12-11T13:37:44;16.00;;;8.60;;
2750;SDS011;1383;48.362;10.908;2022-12-11T13:40:23;19.42;;;10.07;;
2750;SDS011;1383;48.362;10.908;2022-12-11T13:42:54;12.45;;;8.50;;
2750;SDS011;1383;48.362;10.908;2022-12-11T13:48:08;11.05;;;7.57;;
2750;SDS011;1383;48.362;10.908;2022-12-11T13:51:01;13.32;;;9.82;;
2750;SDS011;1383;48.362;10.908;2022-12-11T13:53:28;10.95;;;8.95;;
2750;SDS011;1383;48.362;10.908;2022-12-11T13:58:27;10.65;;;8.57;;
2750;SDS011;1383;48.362;10.908;2022-12-11T14:01:04;13.02;;;8.43;;
2750;SDS011;1383;48.362;10.908;2022-12-11T14:03:39;9.32;;;8.23;;
2750;SDS011;1383;48.362;10.908;2022-12-11T14:06:12;13.65;;;9.18;;
2750;SDS011;1383;48.362;10.908;2022-12-11T14:08:43;14.38;;;9.60;;
2750;SDS011;1383;48.362;10.908;2022-12-11T14:11:23;11.13;;;8.18;;
2750;SDS011;1383;48.362;10.908;2022-12-11T14:13:57;14.13;;;9.45;;
2750;SDS011;1383;48.362;10.908;2022-12-11T14:16:27;11.40;;;8.98;;
2750;SDS011;1383;48.362;10.908;2022-12-11T14:18:55;11.27;;;9.25;;
2750;SDS011;1383;48.362;10.908;2022-12-11T14:21:29;10.30;;;9.05;;
2750;SDS011;1383;48.362;10.908;2022-12-11T14:23:57;13.93;;;9.93;;
2750;SDS011;1383;48.362;10.908;2022-12-11T14:26:26;12.23;;;8.75;;
2750;SDS011;1383;48.362;10.908;2022-12-11T14:28:58;9.90;;;7.85;;
2750;SDS011;1383;48.362;10.908;2022-12-11T14:31:26;12.38;;;10.10;;
2750;SDS011;1383;48.362;10.908;2022-12-11T14:33:59;14.52;;;9.73;;
2750;SDS011;1383;48.362;10.908;2022-12-11T14:36:33;11.50;;;8.90;;
2750;SDS011;1383;48.362;10.908;2022-12-11T14:39:02;14.40;;;11.07;;
2750;SDS011;1383;48.362;10.908;2022-12-11T14:41:40;15.80;;;12.95;;
2750;SDS011;1383;48.362;10.908;2022-12-11T14:44:14;14.88;;;11.05;;
2750;SDS011;1383;48.362;10.908;2022-12-11T14:46:53;15.27;;;9.82;;
2750;SDS011;1383;48.362;10.908;2022-12-11T14:52:14;13.88;;;10.20;;
2750;SDS011;1383;48.362;10.908;2022-12-11T14:54:55;12.48;;;10.05;;
2750;SDS011;1383;48.362;10.908;2022-12-11T14:57:29;16.10;;;11.20;;
2750;SDS011;1383;48.362;10.908;2022-12-11T14:59:57;18.75;;;13.90;;
2750;SDS011;1383;48.362;10.908;2022-12-11T15:02:26;14.10;;;10.05;;
2750;SDS011;1383;48.362;10.908;2022-12-11T15:05:15;12.85;;;10.20;;
2750;SDS011;1383;48.362;10.908;2022-12-11T15:07:58;19.13;;;11.50;;
2750;SDS011;1383;48.362;10.908;2022-12-11T15:16:19;13.10;;;11.40;;
2750;SDS011;1383;48.362;10.908;2022-12-11T15:18:48;18.45;;;11.73;;
2750;SDS011;1383;48.362;10.908;2022-12-11T15:21:17;17.70;;;11.80;;
2750;SDS011;1383;48.362;10.908;2022-12-11T15:23:53;14.40;;;9.82;;
2750;SDS011;1383;48.362;10.908;2022-12-11T15:29:32;14.07;;;9.57;;
2750;SDS011;1383;48.362;10.908;2022-12-11T15:32:22;19.27;;;12.43;;
2750;SDS011;1383;48.362;10.908;2022-12-11T15:34:52;15.18;;;11.65;;
2750;SDS011;1383;48.362;10.908;2022-12-11T15:37:30;14.48;;;11.35;;
2750;SDS011;1383;48.362;10.908;2022-12-11T15:39:59;16.70;;;11.30;;
2750;SDS011;1383;48.362;10.908;2022-12-11T15:42:37;13.48;;;10.48;;
2750;SDS011;1383;48.362;10.908;2022-12-11T15:45:08;17.20;;;11.95;;
2750;SDS011;1383;48.362;10.908;2022-12-11T15:47:42;14.75;;;11.77;;
2750;SDS011;1383;48.362;10.908;2022-12-11T15:52:44;14.30;;;11.40;;
2750;SDS011;1383;48.362;10.908;2022-12-11T15:55:11;17.10;;;11.15;;
2750;SDS011;1383;48.362;10.908;2022-12-11T15:57:40;14.70;;;11.60;;
2750;SDS011;1383;48.362;10.908;2022-12-11T16:00:14;13.43;;;9.50;;
2750;SDS011;1383;48.362;10.908;2022-12-11T16:02:43;19.50;;;13.40;;
2750;SDS011;1383;48.362;10.908;2022-12-11T16:05:11;15.02;;;11.40;;
2750;SDS011;1383;48.362;10.908;2022-12-11T16:07:39;12.20;;;9.88;;
2750;SDS011;1383;48.362;10.908;2022-12-11T16:10:06;16.42;;;11.20;;
2750;SDS011;1383;48.362;10.908;2022-12-11T16:12:39;14.30;;;9.77;;
2750;SDS011;1383;48.362;10.908;2022-12-11T16:15:05;15.48;;;10.30;;
2750;SDS011;1383;48.362;10.908;2022-12-11T16:17:33;15.23;;;11.20;;
2750;SDS011;1383;48.362;10.908;2022-12-11T16:19:59;18.80;;;11.63;;
2750;SDS011;1383;48.362;10.908;2022-12-11T16:22:26;16.80;;;10.65;;
2750;SDS011;1383;48.362;10.908;2022-12-11T16:24:53;17.63;;;12.00;;
2750;SDS011;1383;48.362;10.908;2022-12-11T16:27:21;15.02;;;11.50;;
2750;SDS011;1383;48.362;10.908;2022-12-11T16:29:48;16.02;;;11.77;;
2750;SDS011;1383;48.362;10.908;2022-12-11T16:32:15;22.35;;;12.50;;
2750;SDS011;1383;48.362;10.908;2022-12-11T16:34:43;17.13;;;10.82;;
2750;SDS011;1383;48.362;10.908;2022-12-11T16:37:10;18.77;;;13.23;;
2750;SDS011;1383;48.362;10.908;2022-12-11T16:39:37;17.50;;;12.02;;